Time;durP1;ratioP1;P1;durP2;ratioP2;P2;SDS_P1;SDS_P2;PMS_P1;PMS_P2;Temp;Humidity;BMP_temperature;BMP_pressure;BME280_temperature;BME280_humidity;BME280_pressure;Samples;Min_cycle;Max_cycle;Signal;HPM_P1;HPM_P2
2021/12/15 00:00:25;;;;;;;4.75;4.32;;;19.20;46.60;;;;;;5074945;28;20206;-56
2021/12/15 00:02:53;;;;;;;6.47;4.95;;;19.20;46.10;;;;;;5074933;28;20685;-56
2021/12/15 00:05:22;;;;;;;4.55;4.05;;;19.20;46.00;;;;;;5074558;28;20207;-56
2021/12/15 00:07:50;;;;;;;5.25;4.75;;;19.20;46.00;;;;;;5074595;28;20250;-56
2021/12/15 00:10:19;;;;;;;5.43;4.93;;;19.20;46.10;;;;;;5072878;28;20269;-56
2021/12/15 00:12:46;;;;;;;6.00;4.82;;;19.20;46.10;;;;;;5074472;28;20191;-56
2021/12/15 00:15:13;;;;;;;5.45;4.70;;;19.20;46.70;;;;;;5074117;28;20646;-56
2021/12/15 00:17:41;;;;;;;4.93;4.38;;;19.10;46.00;;;;;;5073906;28;20526;-56
2021/12/15 00:20:10;;;;;;;5.10;4.57;;;19.10;46.10;;;;;;5072594;28;20193;-56
2021/12/15 00:22:38;;;;;;;4.68;4.28;;;19.10;46.00;;;;;;5073468;28;20206;-56
2021/12/15 00:25:06;;;;;;;4.75;4.30;;;19.10;46.10;;;;;;5073666;28;20578;-56
2021/12/15 00:27:35;;;;;;;4.63;4.20;;;19.10;46.10;;;;;;5055450;28;20698;-56
2021/12/15 00:30:02;;;;;;;5.05;4.55;;;19.10;46.00;;;;;;5055537;28;20241;-57
2021/12/15 00:32:30;;;;;;;4.63;4.22;;;19.00;46.00;;;;;;5055652;28;20199;-56
2021/12/15 00:34:58;;;;;;;4.80;4.40;;;19.00;46.00;;;;;;5055630;28;20191;-56
2021/12/15 00:37:25;;;;;;;4.90;4.40;;;19.00;46.00;;;;;;5055771;28;20255;-56
2021/12/15 00:39:54;;;;;;;5.35;4.85;;;19.00;46.10;;;;;;5073490;28;20211;-56
2021/12/15 00:42:21;;;;;;;5.03;4.53;;;19.00;46.10;;;;;;5073578;28;20682;-56
2021/12/15 00:44:49;;;;;;;4.68;4.15;;;18.90;46.10;;;;;;5073491;28;20218;-55
2021/12/15 00:47:16;;;;;;;4.95;4.55;;;18.90;46.10;;;;;;5055378;28;20307;-56
2021/12/15 00:49:44;;;;;;;5.63;4.30;;;18.90;46.10;;;;;;5055228;28;20340;-55
2021/12/15 00:52:11;;;;;;;4.75;4.35;;;18.90;46.10;;;;;;5055204;28;20199;-56
2021/12/15 00:54:39;;;;;;;4.72;4.32;;;18.90;46.10;;;;;;5055518;28;20290;-56
2021/12/15 00:57:06;;;;;;;4.63;4.22;;;18.80;46.10;;;;;;5052179;22;20270;-67
2021/12/15 00:59:34;;;;;;;5.30;4.65;;;18.80;46.10;;;;;;5032947;28;20200;-67
2021/12/15 01:02:03;;;;;;;4.65;4.25;;;18.80;46.10;;;;;;5033465;28;20226;-67
2021/12/15 01:04:30;;;;;;;5.20;4.72;;;18.80;46.20;;;;;;5034231;28;20711;-67
2021/12/15 01:07:00;;;;;;;5.57;4.63;;;18.80;46.10;;;;;;5034337;28;20224;-67
2021/12/15 01:09:31;;;;;;;4.95;4.45;;;18.70;46.10;;;;;;5034011;28;20192;-67
2021/12/15 01:12:19;;;;;;;4.80;4.40;;;18.70;46.10;;;;;;5034648;28;20192;-67
2021/12/15 01:20:23;;;;;;;5.00;4.50;;;18.70;46.20;;;;;;5032866;28;20287;-66
2021/12/15 01:22:51;;;;;;;5.00;4.60;;;18.70;46.20;;;;;;5034299;28;20736;-66
2021/12/15 01:25:21;;;;;;;5.63;5.03;;;18.60;46.20;;;;;;5032463;28;20224;-67
2021/12/15 01:27:49;;;;;;;5.30;4.80;;;18.60;46.20;;;;;;5034014;28;20556;-66
2021/12/15 01:30:20;;;;;;;5.35;4.85;;;18.60;46.20;;;;;;5032678;28;20203;-67
2021/12/15 01:32:49;;;;;;;5.03;4.63;;;18.60;46.20;;;;;;5048921;28;20242;-68
2021/12/15 01:35:19;;;;;;;5.07;4.68;;;18.60;46.20;;;;;;5032963;28;20216;-67
2021/12/15 01:37:47;;;;;;;5.50;5.00;;;18.60;46.20;;;;;;5033172;28;20250;-67
2021/12/15 01:40:22;;;;;;;5.60;5.10;;;18.60;46.30;;;;;;5032400;28;20727;-67
2021/12/15 01:42:52;;;;;;;4.60;4.20;;;18.50;46.20;;;;;;5032493;28;20191;-67
2021/12/15 01:48:06;;;;;;;4.60;4.18;;;18.50;46.30;;;;;;5032473;28;20194;-67
2021/12/15 01:50:35;;;;;;;5.35;4.85;;;18.50;46.30;;;;;;5048966;28;20203;-66
2021/12/15 01:53:02;;;;;;;5.47;4.97;;;18.50;46.40;;;;;;5033391;28;20279;-67
2021/12/15 01:55:29;;;;;;;5.55;5.05;;;18.50;46.40;;;;;;5032313;28;20220;-67
2021/12/15 01:57:57;;;;;;;5.78;5.28;;;18.50;46.40;;;;;;5032441;28;20208;-66
2021/12/15 02:00:26;;;;;;;5.55;5.05;;;18.50;46.40;;;;;;5032355;28;20198;-67
2021/12/15 02:02:54;;;;;;;5.15;4.72;;;18.50;46.50;;;;;;5033279;28;20192;-67
2021/12/15 02:05:22;;;;;;;5.57;5.07;;;18.50;46.50;;;;;;5033289;28;20223;-67
2021/12/15 02:07:50;;;;;;;5.13;4.55;;;18.40;46.40;;;;;;5033531;28;20612;-66
2021/12/15 02:10:18;;;;;;;5.50;5.00;;;18.40;46.40;;;;;;5035224;28;20691;-66
2021/12/15 02:12:45;;;;;;;5.45;4.95;;;18.40;46.40;;;;;;5036398;28;20282;-67
2021/12/15 02:15:15;;;;;;;6.30;5.70;;;18.40;46.50;;;;;;5035833;28;20200;-67
2021/12/15 02:17:43;;;;;;;5.47;4.95;;;18.40;46.50;;;;;;5036133;28;20192;-67
2021/12/15 02:20:18;;;;;;;4.75;4.35;;;18.30;46.40;;;;;;5035828;28;20196;-67
2021/12/15 02:22:50;;;;;;;5.60;5.07;;;18.40;46.60;;;;;;5037263;28;20195;-67
2021/12/15 02:25:17;;;;;;;5.28;4.82;;;18.30;46.50;;;;;;5052582;28;20707;-67
2021/12/15 02:27:44;;;;;;;5.40;4.90;;;18.40;46.50;;;;;;5035757;28;20291;-67
2021/12/15 02:30:38;;;;;;;5.53;4.93;;;18.30;46.50;;;;;;5035636;28;20231;-67
2021/12/15 02:33:22;;;;;;;6.53;5.53;;;18.30;46.60;;;;;;5035641;28;20200;-66
2021/12/15 02:38:39;;;;;;;5.63;5.13;;;18.30;46.70;;;;;;5036669;28;20172;-67
2021/12/15 02:41:13;;;;;;;5.10;4.60;;;18.30;46.60;;;;;;5035357;28;20189;-67
2021/12/15 02:43:40;;;;;;;5.60;5.10;;;18.30;46.70;;;;;;5035465;28;20199;-66
2021/12/15 02:46:07;;;;;;;5.18;4.78;;;18.30;46.70;;;;;;5035853;28;20255;-67
2021/12/15 02:48:34;;;;;;;5.68;5.18;;;18.30;46.80;;;;;;5036071;28;20648;-67
2021/12/15 02:51:01;;;;;;;5.80;5.30;;;18.20;46.60;;;;;;5036737;28;20211;-66
2021/12/15 02:53:28;;;;;;;5.50;5.00;;;18.20;46.70;;;;;;5035406;28;20679;-67
2021/12/15 02:55:57;;;;;;;6.25;5.65;;;18.20;46.70;;;;;;5035438;28;20234;-67
2021/12/15 02:58:31;;;;;;;5.90;5.30;;;18.20;46.70;;;;;;5035127;28;20227;-67
2021/12/15 03:01:02;;;;;;;6.68;5.82;;;18.20;46.70;;;;;;5035395;28;20228;-67
2021/12/15 03:06:30;;;;;;;5.72;5.22;;;18.20;46.80;;;;;;4988929;28;20263;-67
2021/12/15 03:09:10;;;;;;;6.03;5.13;;;18.20;46.80;;;;;;5035617;28;20183;-66
2021/12/15 03:17:17;;;;;;;6.47;5.80;;;18.10;46.80;;;;;;5033343;28;20219;-66
2021/12/15 03:19:44;;;;;;;4.93;4.53;;;18.10;46.80;;;;;;5034777;28;20678;-67
2021/12/15 03:22:11;;;;;;;5.40;4.80;;;18.10;46.80;;;;;;5179900;22;20239;-68
2021/12/15 03:24:38;;;;;;;5.53;5.03;;;18.10;46.80;;;;;;5034908;28;20278;-68
2021/12/15 03:27:13;;;;;;;6.07;5.57;;;18.10;46.80;;;;;;5034766;28;20235;-68
2021/12/15 03:35:18;;;;;;;6.20;5.60;;;18.10;46.80;;;;;;5050576;28;20198;-68
2021/12/15 03:37:47;;;;;;;6.75;6.05;;;18.10;46.80;;;;;;5034718;28;20195;-68
2021/12/15 03:40:16;;;;;;;6.35;5.75;;;18.10;46.70;;;;;;5034916;28;20223;-68
2021/12/15 03:42:48;;;;;;;5.93;5.43;;;18.10;46.70;;;;;;5035999;28;20192;-68
2021/12/15 03:45:18;;;;;;;5.63;5.13;;;18.10;46.80;;;;;;5034323;28;20222;-68
2021/12/15 03:47:46;;;;;;;5.80;5.30;;;18.10;46.80;;;;;;5034852;28;20210;-68
2021/12/15 03:50:14;;;;;;;5.28;4.78;;;18.10;46.80;;;;;;5036185;28;20279;-68
2021/12/15 03:52:42;;;;;;;6.20;5.60;;;18.00;46.80;;;;;;5035230;28;20231;-68
2021/12/15 03:55:09;;;;;;;5.90;5.40;;;18.00;46.70;;;;;;5035012;28;20211;-68
2021/12/15 03:57:37;;;;;;;5.93;5.32;;;18.00;46.70;;;;;;5035078;28;20263;-68
2021/12/15 04:00:07;;;;;;;5.90;5.30;;;18.00;46.70;;;;;;5035075;28;20593;-68
2021/12/15 04:02:38;;;;;;;5.57;4.97;;;18.00;46.70;;;;;;5036555;28;20670;-68
2021/12/15 04:05:06;;;;;;;5.95;5.40;;;18.00;46.80;;;;;;5036906;28;20707;-68
2021/12/15 04:07:33;;;;;;;5.63;5.13;;;18.00;46.90;;;;;;5035070;28;20197;-68
2021/12/15 04:10:00;;;;;;;5.38;4.90;;;18.00;47.30;;;;;;5036040;28;20192;-68
2021/12/15 04:12:27;;;;;;;5.68;5.07;;;18.00;46.80;;;;;;5036047;28;20188;-68
2021/12/15 04:15:07;;;;;;;5.97;5.38;;;18.00;46.90;;;;;;5034604;28;20218;-68
2021/12/15 04:17:36;;;;;;;7.53;6.57;;;18.00;47.60;;;;;;5034879;28;20196;-68
2021/12/15 04:20:07;;;;;;;7.60;6.80;;;18.00;46.90;;;;;;5035528;28;20226;-68
2021/12/15 04:22:33;;;;;;;6.90;6.20;;;18.00;46.90;;;;;;5034389;28;20218;-68
2021/12/15 04:25:03;;;;;;;6.70;5.95;;;18.00;46.90;;;;;;5035297;28;20291;-68
2021/12/15 04:27:30;;;;;;;6.53;5.93;;;18.00;46.90;;;;;;5033681;28;20231;-68
2021/12/15 04:29:57;;;;;;;6.70;6.10;;;18.00;46.90;;;;;;5050547;28;20204;-68
2021/12/15 04:32:27;;;;;;;7.32;5.97;;;18.00;46.80;;;;;;5033576;28;20200;-68
2021/12/15 04:34:56;;;;;;;6.90;5.97;;;18.10;46.80;;;;;;5033631;28;20564;-68
2021/12/15 04:37:23;;;;;;;7.05;6.35;;;18.00;46.70;;;;;;5034080;28;20196;-68
2021/12/15 04:39:50;;;;;;;7.82;7.03;;;18.00;46.60;;;;;;5033902;28;20192;-68
2021/12/15 04:42:19;;;;;;;7.40;6.18;;;18.10;46.60;;;;;;5034482;28;20231;-68
2021/12/15 04:44:46;;;;;;;6.43;5.82;;;18.10;46.60;;;;;;5034078;28;20254;-68
2021/12/15 04:47:14;;;;;;;6.65;6.05;;;18.10;46.50;;;;;;5033634;28;20238;-68
2021/12/15 04:49:43;;;;;;;6.50;5.90;;;18.10;46.50;;;;;;5033721;28;20203;-68
2021/12/15 04:52:12;;;;;;;6.20;5.60;;;18.10;46.50;;;;;;5033307;28;20579;-68
2021/12/15 04:54:39;;;;;;;6.05;5.55;;;18.10;46.50;;;;;;5033262;28;20192;-68
2021/12/15 04:57:06;;;;;;;5.75;5.25;;;18.10;46.40;;;;;;5032936;28;20593;-68
2021/12/15 04:59:33;;;;;;;6.30;5.75;;;18.10;46.40;;;;;;5033216;28;20196;-68
2021/12/15 05:02:01;;;;;;;6.68;5.95;;;18.20;46.40;;;;;;5033352;28;20196;-68
2021/12/15 05:04:28;;;;;;;6.20;5.57;;;18.20;46.40;;;;;;5033097;28;20196;-68
2021/12/15 05:06:55;;;;;;;6.38;5.78;;;18.20;46.30;;;;;;5032508;28;20679;-68
2021/12/15 05:09:24;;;;;;;5.72;5.22;;;18.20;46.30;;;;;;5032716;28;20204;-68
2021/12/15 05:11:51;;;;;;;6.28;5.68;;;18.20;46.30;;;;;;5033196;28;20206;-68
2021/12/15 05:14:19;;;;;;;5.28;4.78;;;18.20;46.40;;;;;;5032811;28;20219;-68
2021/12/15 05:16:46;;;;;;;5.47;4.97;;;18.20;46.30;;;;;;5032870;28;20208;-69
2021/12/15 05:19:13;;;;;;;4.45;4.05;;;18.20;46.40;;;;;;5032563;28;20587;-68
2021/12/15 05:21:40;;;;;;;4.47;4.07;;;18.20;46.30;;;;;;5033782;28;20196;-68
2021/12/15 05:24:14;;;;;;;4.85;4.45;;;18.20;46.30;;;;;;5032679;28;20207;-66
2021/12/15 05:26:42;;;;;;;5.70;4.18;;;18.20;46.20;;;;;;5032084;28;20227;-68
2021/12/15 05:29:09;;;;;;;5.47;4.97;;;18.30;46.20;;;;;;5032537;28;20195;-68
2021/12/15 05:31:36;;;;;;;4.80;4.40;;;18.30;46.10;;;;;;5032404;28;20573;-68
2021/12/15 05:34:03;;;;;;;4.68;4.20;;;18.30;46.10;;;;;;5032698;28;20196;-68
2021/12/15 05:36:31;;;;;;;5.03;4.63;;;18.30;46.10;;;;;;5032748;28;20695;-68
2021/12/15 05:38:58;;;;;;;4.13;3.80;;;18.30;46.00;;;;;;5034519;28;20270;-68
2021/12/15 05:41:26;;;;;;;4.50;4.10;;;18.30;45.90;;;;;;5032903;28;20192;-68
2021/12/15 05:43:55;;;;;;;4.68;4.28;;;18.30;45.90;;;;;;5032567;28;20196;-68
2021/12/15 05:46:22;;;;;;;4.88;4.35;;;18.30;45.90;;;;;;5032287;28;20630;-68
2021/12/15 05:48:49;;;;;;;3.92;3.63;;;18.40;45.80;;;;;;5032355;28;20222;-68
2021/12/15 05:51:16;;;;;;;4.63;4.22;;;18.40;45.90;;;;;;5032292;28;20200;-68
2021/12/15 05:53:43;;;;;;;4.80;4.40;;;18.40;45.90;;;;;;5031878;28;20199;-68
2021/12/15 05:56:12;;;;;;;5.15;4.72;;;18.40;45.80;;;;;;5032253;28;20216;-68
2021/12/15 05:58:39;;;;;;;4.63;4.20;;;18.40;45.70;;;;;;5031965;28;20239;-68
2021/12/15 06:01:08;;;;;;;4.40;4.00;;;18.40;45.70;;;;;;5032368;28;20200;-68
2021/12/15 06:03:35;;;;;;;4.60;4.20;;;18.40;45.70;;;;;;5032863;28;20219;-68
2021/12/15 06:06:02;;;;;;;4.20;3.80;;;18.40;45.70;;;;;;5032207;28;20223;-68
2021/12/15 06:08:30;;;;;;;4.28;3.97;;;18.50;45.70;;;;;;5034156;28;20188;-68
2021/12/15 06:10:57;;;;;;;4.13;3.83;;;18.50;45.70;;;;;;5034915;28;20615;-68
2021/12/15 06:13:26;;;;;;;4.15;3.85;;;18.50;45.60;;;;;;5033635;28;20212;-68
2021/12/15 06:15:54;;;;;;;4.05;3.65;;;18.50;45.60;;;;;;5034643;28;20226;-68
2021/12/15 06:18:23;;;;;;;4.57;4.18;;;18.50;45.60;;;;;;5033034;28;20571;-68
2021/12/15 06:20:51;;;;;;;4.60;4.18;;;18.50;45.50;;;;;;5032104;28;20290;-68
2021/12/15 06:23:20;;;;;;;4.43;4.03;;;18.50;45.50;;;;;;5032182;28;20667;-68
2021/12/15 06:25:49;;;;;;;4.53;4.13;;;18.50;45.50;;;;;;5032119;28;20223;-68
2021/12/15 06:28:16;;;;;;;4.30;4.00;;;18.60;45.50;;;;;;5032470;28;20200;-68
2021/12/15 06:30:44;;;;;;;4.53;4.13;;;18.50;45.50;;;;;;5032284;28;20200;-68
2021/12/15 06:33:11;;;;;;;4.43;4.03;;;18.50;45.40;;;;;;5032411;28;20196;-68
2021/12/15 06:35:40;;;;;;;4.85;4.45;;;18.50;45.30;;;;;;5048390;28;20215;-67
2021/12/15 06:38:07;;;;;;;5.53;5.03;;;18.60;45.40;;;;;;5032129;28;20614;-68
2021/12/15 06:40:34;;;;;;;4.22;3.85;;;18.60;45.30;;;;;;5033281;28;20660;-68
2021/12/15 06:43:01;;;;;;;4.32;3.92;;;18.60;45.30;;;;;;5031618;28;20204;-68
2021/12/15 06:45:35;;;;;;;4.50;4.10;;;18.60;45.40;;;;;;5031323;28;20224;-68
2021/12/15 06:59:03;;;;;;;4.57;4.18;;;18.60;45.20;;;;;;5036390;28;20215;-68
2021/12/15 07:01:31;;;;;;;4.32;4.03;;;18.60;45.20;;;;;;5036762;28;20196;-68
2021/12/15 07:03:58;;;;;;;5.00;4.47;;;18.60;45.20;;;;;;5055179;22;20649;-64
2021/12/15 07:06:27;;;;;;;4.50;4.15;;;18.60;45.10;;;;;;5056664;28;20198;-65
2021/12/15 07:08:54;;;;;;;5.13;4.72;;;18.60;45.10;;;;;;5055575;28;20543;-65
2021/12/15 07:11:22;;;;;;;4.32;3.92;;;18.60;45.00;;;;;;5055741;28;20210;-65
2021/12/15 07:13:50;;;;;;;4.57;4.18;;;18.60;45.00;;;;;;5055286;28;20230;-65
2021/12/15 07:16:19;;;;;;;4.72;4.32;;;18.70;45.20;;;;;;5055133;28;20188;-65
2021/12/15 07:18:52;;;;;;;4.90;4.50;;;18.60;45.00;;;;;;5056039;28;20290;-65
2021/12/15 07:21:23;;;;;;;5.05;4.65;;;18.70;44.90;;;;;;5055133;28;20187;-64
2021/12/15 07:23:53;;;;;;;4.70;4.30;;;18.70;44.90;;;;;;5054998;28;20670;-65
2021/12/15 07:26:20;;;;;;;4.82;4.43;;;18.70;44.90;;;;;;5054628;28;20557;-64
2021/12/15 07:28:47;;;;;;;5.03;4.57;;;18.70;44.80;;;;;;5054821;28;20211;-65
2021/12/15 07:31:15;;;;;;;4.18;3.88;;;18.70;44.80;;;;;;5053397;28;20199;-65
2021/12/15 07:33:42;;;;;;;3.90;3.60;;;18.70;44.80;;;;;;5053236;28;20196;-64
2021/12/15 07:36:09;;;;;;;3.95;3.58;;;18.70;44.80;;;;;;5054805;28;20202;-64
2021/12/15 07:38:41;;;;;;;4.07;3.78;;;18.70;44.80;;;;;;5054517;28;20218;-65
2021/12/15 07:41:20;;;;;;;4.15;3.85;;;18.70;44.80;;;;;;5036659;28;20831;-65
2021/12/15 07:43:47;;;;;;;3.88;3.58;;;18.70;44.80;;;;;;5036735;28;20199;-65
2021/12/15 07:46:14;;;;;;;4.43;4.07;;;18.80;44.80;;;;;;5054495;28;20211;-64
2021/12/15 07:48:42;;;;;;;3.80;3.50;;;18.70;44.80;;;;;;5036475;28;20619;-64
2021/12/15 07:51:10;;;;;;;3.53;3.33;;;18.70;44.80;;;;;;5036365;28;20376;-65
2021/12/15 07:53:38;;;;;;;3.83;3.42;;;18.80;44.80;;;;;;5036348;28;20199;-65
2021/12/15 07:56:06;;;;;;;3.83;3.53;;;18.80;45.40;;;;;;5054279;28;20186;-64
2021/12/15 07:58:34;;;;;;;3.85;3.55;;;18.80;44.80;;;;;;5054081;28;20215;-65
2021/12/15 08:01:03;;;;;;;3.67;3.38;;;18.80;44.80;;;;;;5052865;28;20196;-64
2021/12/15 08:03:31;;;;;;;4.00;3.70;;;18.80;44.80;;;;;;5053892;28;20187;-64
2021/12/15 08:05:59;;;;;;;3.75;3.45;;;18.80;44.60;;;;;;5054023;28;20320;-65
2021/12/15 08:08:26;;;;;;;4.07;3.78;;;18.80;44.60;;;;;;5053412;28;20215;-64
2021/12/15 08:10:56;;;;;;;3.90;3.60;;;18.80;44.70;;;;;;5052618;28;20620;-64
2021/12/15 08:13:23;;;;;;;3.90;3.50;;;18.80;44.70;;;;;;5036235;28;20203;-64
2021/12/15 08:15:52;;;;;;;3.92;3.63;;;18.90;44.60;;;;;;5035998;28;20191;-64
2021/12/15 08:18:19;;;;;;;3.58;3.38;;;18.90;44.60;;;;;;5053917;28;20215;-64
2021/12/15 08:20:46;;;;;;;3.53;3.22;;;18.90;44.60;;;;;;5036082;28;20319;-64
2021/12/15 08:23:13;;;;;;;3.70;3.40;;;18.90;44.50;;;;;;5053610;28;20217;-64
2021/12/15 08:25:40;;;;;;;3.55;3.25;;;18.90;44.60;;;;;;5036052;28;20195;-64
2021/12/15 08:28:08;;;;;;;3.20;3.00;;;18.90;44.50;;;;;;5036126;28;20215;-65
2021/12/15 08:30:39;;;;;;;3.60;3.30;;;18.90;44.30;;;;;;5052807;28;20203;-64
2021/12/15 08:33:09;;;;;;;3.00;2.80;;;18.90;44.40;;;;;;5035640;28;20721;-64
2021/12/15 08:35:38;;;;;;;3.60;3.30;;;19.00;44.40;;;;;;5053811;28;20207;-64
2021/12/15 08:38:06;;;;;;;2.85;2.65;;;19.00;44.20;;;;;;5054054;28;20294;-64
2021/12/15 08:40:33;;;;;;;2.97;2.78;;;19.00;44.30;;;;;;5052618;28;20621;-65
2021/12/15 08:43:00;;;;;;;2.95;2.75;;;19.00;44.20;;;;;;5053932;28;20202;-65
2021/12/15 08:45:28;;;;;;;3.03;2.83;;;19.00;44.00;;;;;;5054242;28;20240;-65
2021/12/15 08:47:57;;;;;;;3.20;3.00;;;19.00;44.00;;;;;;5036380;28;20314;-65
2021/12/15 08:50:30;;;;;;;2.80;2.60;;;19.00;44.00;;;;;;5035746;28;20199;-65
2021/12/15 08:52:57;;;;;;;2.88;2.67;;;19.00;44.00;;;;;;5054033;28;20180;-65
2021/12/15 08:55:25;;;;;;;2.67;2.47;;;19.00;43.90;;;;;;5053989;28;20188;-65
2021/12/15 08:57:54;;;;;;;2.88;2.67;;;19.00;44.00;;;;;;5053414;28;20235;-65
2021/12/15 09:00:22;;;;;;;2.92;2.72;;;19.00;44.00;;;;;;5053527;28;20202;-65
2021/12/15 09:02:50;;;;;;;2.90;2.70;;;19.10;44.00;;;;;;5053510;28;20619;-65
2021/12/15 09:05:20;;;;;;;2.78;2.58;;;19.10;43.80;;;;;;5035359;28;20210;-65
2021/12/15 09:07:50;;;;;;;3.03;2.83;;;19.10;44.10;;;;;;5053093;28;20231;-65
2021/12/15 09:10:17;;;;;;;3.00;2.80;;;19.10;44.20;;;;;;5053280;28;20227;-65
2021/12/15 09:12:45;;;;;;;3.38;3.00;;;19.10;44.30;;;;;;5053231;28;20656;-64
2021/12/15 09:15:12;;;;;;;3.08;2.88;;;19.10;44.30;;;;;;5053043;28;20199;-64
2021/12/15 09:17:39;;;;;;;3.17;2.88;;;19.20;44.20;;;;;;5052949;28;20689;-64
2021/12/15 09:20:06;;;;;;;3.00;2.80;;;19.20;44.30;;;;;;5051030;28;20219;-64
2021/12/15 09:22:34;;;;;;;3.10;2.75;;;19.20;44.40;;;;;;5053527;28;20203;-64
2021/12/15 09:25:02;;;;;;;3.15;2.88;;;19.20;44.60;;;;;;5054098;28;20223;-64
2021/12/15 09:27:30;;;;;;;3.25;2.95;;;19.20;45.10;;;;;;5035500;28;20259;-65
2021/12/15 09:29:57;;;;;;;3.00;2.78;;;19.20;45.50;;;;;;5053329;28;20200;-65
2021/12/15 09:32:24;;;;;;;3.28;2.72;;;19.20;45.10;;;;;;5051825;28;20566;-64
2021/12/15 09:34:51;;;;;;;3.20;2.90;;;19.30;45.10;;;;;;5052915;28;20626;-64
2021/12/15 09:37:19;;;;;;;3.40;3.20;;;19.30;44.80;;;;;;5052742;28;20203;-64
2021/12/15 09:39:46;;;;;;;3.00;2.70;;;19.30;44.70;;;;;;5034893;28;20290;-64
2021/12/15 09:42:19;;;;;;;3.03;2.83;;;19.30;44.60;;;;;;5034811;28;20248;-64
2021/12/15 09:44:47;;;;;;;3.33;3.03;;;19.30;44.70;;;;;;5035039;28;20286;-65
2021/12/15 09:47:25;;;;;;;2.92;2.72;;;19.30;44.30;;;;;;5050970;28;20284;-65
2021/12/15 10:03:51;;;;;;;3.55;3.22;;;19.40;43.90;;;;;;5052354;28;20337;-64
2021/12/15 10:19:57;;;;;;;2.88;2.60;;;19.50;44.00;;;;;;5052157;28;20199;-65
2021/12/15 10:22:31;;;;;;;2.92;2.72;;;19.50;43.80;;;;;;5052076;28;20192;-65
2021/12/15 10:25:00;;;;;;;2.88;2.67;;;19.50;43.70;;;;;;5050700;28;20202;-65
2021/12/15 10:27:36;;;;;;;4.47;2.65;;;19.50;43.90;;;;;;5051960;28;20224;-65
2021/12/15 10:30:09;;;;;;;3.25;2.63;;;19.50;43.60;;;;;;5053018;28;20187;-65
2021/12/15 10:32:38;;;;;;;3.03;2.83;;;19.50;43.60;;;;;;5056311;28;20180;-66
2021/12/15 10:35:07;;;;;;;92.72;40.28;;;19.60;43.70;;;;;;5055934;28;20199;-66
2021/12/15 10:37:34;;;;;;;25.77;13.63;;;19.50;43.30;;;;;;5055968;28;20279;-66
2021/12/15 10:40:13;;;;;;;28.25;12.90;;;19.50;43.20;;;;;;5037962;28;20199;-65
2021/12/15 10:42:40;;;;;;;20.95;10.70;;;19.50;43.20;;;;;;5037695;28;20205;-66
2021/12/15 10:45:11;;;;;;;17.85;10.00;;;19.50;42.90;;;;;;5055706;28;20230;-65
2021/12/15 10:47:43;;;;;;;15.77;9.52;;;19.40;43.30;;;;;;5037727;28;20757;-65
2021/12/15 10:50:15;;;;;;;17.23;9.40;;;19.50;43.30;;;;;;5055909;28;20191;-65
2021/12/15 10:52:54;;;;;;;18.05;8.55;;;19.50;43.30;;;;;;5055777;28;20736;-65
2021/12/15 10:55:21;;;;;;;14.50;8.73;;;19.50;43.30;;;;;;5054391;28;20199;-65
2021/12/15 10:57:48;;;;;;;15.60;7.93;;;19.50;43.40;;;;;;5037515;28;20302;-65
2021/12/15 11:00:19;;;;;;;14.43;8.00;;;19.40;43.10;;;;;;5037440;28;20207;-65
2021/12/15 11:02:46;;;;;;;12.38;7.45;;;19.50;44.10;;;;;;5037633;28;20191;-65
2021/12/15 11:05:14;;;;;;;11.10;6.88;;;19.50;42.80;;;;;;5037193;28;20203;-65
2021/12/15 11:07:42;;;;;;;15.73;7.47;;;19.40;42.70;;;;;;5055225;28;20251;-65
2021/12/15 11:10:10;;;;;;;13.70;6.60;;;19.50;43.60;;;;;;5055502;28;20200;-65
2021/12/15 11:12:38;;;;;;;9.63;5.75;;;19.40;42.50;;;;;;5037142;28;20196;-63
2021/12/15 11:15:07;;;;;;;9.70;6.10;;;19.50;43.10;;;;;;5055165;28;20238;-65
2021/12/15 11:17:39;;;;;;;10.35;5.80;;;19.50;43.20;;;;;;5055138;28;20199;-65
2021/12/15 11:20:10;;;;;;;8.52;5.30;;;19.50;43.50;;;;;;5037188;28;20283;-64
2021/12/15 11:22:55;;;;;;;8.80;5.80;;;19.50;43.50;;;;;;5054924;28;20199;-65
2021/12/15 11:25:31;;;;;;;10.10;6.18;;;19.50;43.60;;;;;;5055179;28;20191;-65
2021/12/15 11:28:07;;;;;;;10.07;5.70;;;19.50;43.70;;;;;;5036854;28;20317;-65
2021/12/15 11:30:38;;;;;;;8.20;5.22;;;19.50;43.60;;;;;;5036892;28;20192;-65
2021/12/15 11:33:08;;;;;;;8.45;5.18;;;19.50;43.50;;;;;;5054693;28;20184;-64
2021/12/15 11:35:37;;;;;;;7.95;5.53;;;19.50;43.50;;;;;;5053718;28;20278;-64
2021/12/15 11:38:07;;;;;;;9.48;5.40;;;19.50;43.40;;;;;;5036879;28;20216;-65
2021/12/15 11:40:41;;;;;;;7.88;5.68;;;19.50;43.50;;;;;;5054617;28;20714;-65
2021/12/15 11:43:08;;;;;;;8.57;5.80;;;19.50;43.40;;;;;;5035747;28;20192;-66
2021/12/15 11:45:42;;;;;;;6.78;5.30;;;19.50;43.40;;;;;;5053357;28;20663;-65
2021/12/15 11:48:23;;;;;;;6.20;4.57;;;19.40;43.30;;;;;;5054650;28;20609;-65
2021/12/15 11:50:51;;;;;;;8.15;5.00;;;19.40;43.50;;;;;;5054409;28;20222;-66
2021/12/15 11:53:32;;;;;;;7.15;4.93;;;19.40;43.50;;;;;;5036525;28;20199;-65
2021/12/15 11:56:26;;;;;;;6.57;4.82;;;19.40;43.40;;;;;;5054562;28;20179;-65
2021/12/15 11:59:02;;;;;;;6.63;4.57;;;19.50;43.40;;;;;;5036577;28;20279;-65
2021/12/15 12:01:45;;;;;;;6.10;4.50;;;19.50;43.40;;;;;;5052892;28;20273;-65
2021/12/15 12:04:20;;;;;;;5.95;4.40;;;19.40;43.50;;;;;;5052927;28;20240;-65
2021/12/15 12:06:47;;;;;;;8.75;4.85;;;19.40;43.50;;;;;;5054002;28;20692;-65
2021/12/15 12:09:15;;;;;;;7.13;4.38;;;19.40;43.40;;;;;;5036318;28;20199;-65
2021/12/15 12:11:47;;;;;;;6.18;4.40;;;19.50;43.30;;;;;;5054357;28;20275;-66
2021/12/15 12:14:26;;;;;;;4.90;3.70;;;19.40;43.40;;;;;;5053871;28;20175;-66
2021/12/15 12:16:53;;;;;;;7.32;4.50;;;19.50;43.30;;;;;;5054264;28;20231;-65
2021/12/15 12:19:22;;;;;;;6.38;4.30;;;19.50;43.40;;;;;;5053959;28;20241;-65
2021/12/15 12:21:49;;;;;;;5.82;4.00;;;19.50;43.30;;;;;;5036057;28;20206;-65
2021/12/15 12:24:18;;;;;;;7.32;4.03;;;19.50;43.10;;;;;;5053870;28;20217;-65
2021/12/15 12:26:46;;;;;;;7.70;4.05;;;19.50;43.10;;;;;;5035801;28;20199;-65
2021/12/15 12:29:14;;;;;;;4.80;4.10;;;19.50;42.80;;;;;;5036003;28;20246;-66
2021/12/15 12:31:40;;;;;;;4.75;3.70;;;19.50;43.00;;;;;;5053739;28;20192;-66
2021/12/15 12:34:07;;;;;;;5.40;4.10;;;19.50;43.00;;;;;;5052423;28;20234;-65
2021/12/15 12:36:36;;;;;;;6.90;3.75;;;19.50;43.00;;;;;;5035874;28;20294;-65
2021/12/15 12:39:08;;;;;;;4.88;3.90;;;19.50;43.10;;;;;;5035831;28;20649;-65
2021/12/15 12:41:39;;;;;;;5.75;3.75;;;19.50;42.90;;;;;;5035584;28;20237;-65
2021/12/15 12:44:07;;;;;;;4.32;3.38;;;19.50;42.90;;;;;;5053984;28;20278;-66
2021/12/15 12:46:40;;;;;;;4.88;3.70;;;19.50;43.00;;;;;;5053672;28;20187;-66
2021/12/15 12:49:52;;;;;;;4.05;3.17;;;19.60;43.10;;;;;;5053823;28;20308;-65
2021/12/15 12:59:21;;;;;;;4.50;3.22;;;19.50;43.10;;;;;;5053688;28;20211;-66
2021/12/15 13:00:50;;;;;;;4.65;3.30;;;19.50;42.80;;;;;;5035355;28;20238;-66
2021/12/15 13:03:21;;;;;;;4.20;3.60;;;19.50;42.90;;;;;;5035738;28;20286;-66
2021/12/15 13:05:49;;;;;;;6.07;3.33;;;19.50;43.10;;;;;;5046508;22;20233;-68
2021/12/15 13:08:24;;;;;;;4.90;3.17;;;19.50;43.60;;;;;;5013998;28;20584;-68
2021/12/15 13:11:03;;;;;;;4.45;3.60;;;19.50;43.10;;;;;;5014042;28;20647;-68
2021/12/15 13:13:32;;;;;;;4.93;3.10;;;19.60;43.30;;;;;;5012828;28;20272;-68
2021/12/15 13:16:01;;;;;;;3.78;3.38;;;19.50;43.10;;;;;;5012668;28;20244;-67
2021/12/15 13:18:29;;;;;;;3.83;3.25;;;19.50;43.00;;;;;;5012907;28;20228;-68
2021/12/15 13:21:00;;;;;;;4.30;3.28;;;19.60;43.10;;;;;;5013063;28;20275;-68
2021/12/15 13:23:45;;;;;;;3.85;3.33;;;19.50;43.00;;;;;;5013202;28;20197;-68
2021/12/15 13:29:21;;;;;;;4.78;3.10;;;19.50;42.90;;;;;;5012982;28;20271;-68
2021/12/15 13:31:56;;;;;;;4.28;3.33;;;19.50;42.90;;;;;;5012998;28;20180;-67
2021/12/15 13:34:39;;;;;;;3.42;3.13;;;19.50;42.90;;;;;;5013292;28;20655;-68
2021/12/15 13:37:06;;;;;;;4.75;2.90;;;19.50;43.10;;;;;;5013755;28;20196;-68
2021/12/15 13:39:46;;;;;;;3.70;3.10;;;19.50;42.70;;;;;;5015757;28;20307;-67
2021/12/15 13:42:14;;;;;;;4.68;3.30;;;19.60;43.00;;;;;;5013282;28;20203;-68
2021/12/15 13:44:43;;;;;;;3.55;3.20;;;19.60;42.80;;;;;;5012838;28;20243;-68
2021/12/15 13:47:18;;;;;;;4.88;3.53;;;19.50;42.70;;;;;;5012722;28;20254;-68
2021/12/15 13:49:46;;;;;;;4.20;3.00;;;19.50;42.70;;;;;;5012756;28;20203;-68
2021/12/15 13:52:29;;;;;;;3.92;3.10;;;19.50;42.70;;;;;;5012752;28;20207;-68
2021/12/15 13:55:32;;;;;;;3.85;3.20;;;19.50;42.60;;;;;;5014010;28;20236;-68
2021/12/15 13:58:15;;;;;;;3.42;2.90;;;19.60;42.90;;;;;;5012585;28;20188;-68
2021/12/15 14:00:49;;;;;;;3.65;3.05;;;19.50;43.00;;;;;;5012467;28;20517;-68
2021/12/15 14:03:22;;;;;;;3.28;2.95;;;19.50;42.80;;;;;;5013336;28;20181;-70
2021/12/15 14:05:51;;;;;;;3.97;3.00;;;19.50;42.70;;;;;;5014448;28;20224;-69
2021/12/15 14:08:19;;;;;;;4.07;3.33;;;19.50;42.80;;;;;;5016157;28;20300;-69
2021/12/15 14:10:54;;;;;;;3.90;3.10;;;19.50;42.80;;;;;;5016207;28;20203;-70